Time;durP1;ratioP1;P1;durP2;ratioP2;P2;SDS_P1;SDS_P2;PMS_P1;PMS_P2;Temp;Humidity;BMP_temperature;BMP_pressure;BME280_temperature;BME280_humidity;BME280_pressure;Samples;Min_cycle;Max_cycle;Signal;HPM_P1;HPM_P2
2022/01/18 00:01:32;;;;;;;5.03;2.92;;;;;;;1.77;65.48;100439.63;5084796;28;20059;-67
2022/01/18 00:04:05;;;;;;;13.43;4.28;;;;;;;1.94;65.13;100462.25;5085515;28;20354;-67
2022/01/18 00:06:41;;;;;;;7.68;3.50;;;;;;;1.88;64.50;100453.53;5085460;28;20244;-66
2022/01/18 00:09:14;;;;;;;7.10;2.83;;;;;;;1.90;65.12;100456.16;5088689;28;20044;-66
2022/01/18 00:11:51;;;;;;;4.28;2.25;;;;;;;1.58;64.84;100443.97;5092083;28;20164;-66
2022/01/18 00:14:26;;;;;;;4.43;2.47;;;;;;;1.86;64.69;100451.81;5091999;28;20044;-67
2022/01/18 00:17:16;;;;;;;;;;;;;;;1.81;63.96;100458.78;5092219;28;20239;-66
2022/01/18 00:19:54;;;;;;;5.07;3.10;;;;;;;-0.12;64.83;100157.03;5091295;28;19961;-66
2022/01/18 00:22:29;;;;;;;7.43;2.60;;;;;;;1.83;64.85;100467.50;5091016;28;20032;-66
2022/01/18 00:25:02;;;;;;;5.93;2.88;;;;;;;1.55;64.51;100467.50;5091738;28;20044;-65
2022/01/18 00:27:31;;;;;;;5.85;2.17;;;;;;;1.83;64.86;100483.19;5092001;28;20028;-67
2022/01/18 00:30:13;;;;;;;7.30;2.85;;;;;;;1.84;64.56;100498.00;5091938;28;20064;-65
2022/01/18 00:32:55;;;;;;;7.88;3.28;;;;;;;1.80;64.87;100499.75;5091577;28;20044;-65
2022/01/18 00:35:32;;;;;;;11.10;3.10;;;;;;;1.81;64.93;100501.47;5091606;28;20086;-64
2022/01/18 00:38:15;;;;;;;7.82;2.33;;;;;;;1.81;65.21;100503.22;5091802;28;20041;-64
2022/01/18 00:40:47;;;;;;;6.55;2.50;;;;;;;1.79;64.78;100516.28;5091537;28;20296;-66
2022/01/18 00:43:20;;;;;;;6.40;2.10;;;;;;;1.78;64.87;100511.94;5091750;28;20048;-64
2022/01/18 00:45:52;;;;;;;13.05;3.28;;;;;;;1.79;64.80;100515.44;5091782;28;20036;-65
2022/01/18 00:48:24;;;;;;;8.20;2.90;;;;;;;1.79;64.68;100515.44;5091447;28;20090;-66
2022/01/18 00:50:57;;;;;;;6.75;3.33;;;;;;;1.53;65.04;100473.59;5091521;28;20243;-66
2022/01/18 00:53:32;;;;;;;8.70;3.72;;;;;;;0.72;65.10;100374.38;5091377;28;20086;-66
2022/01/18 00:56:17;;;;;;;5.40;2.75;;;;;;;1.80;65.14;100545.91;5091463;28;20239;-66
2022/01/18 00:58:51;;;;;;;6.68;2.78;;;;;;;1.79;65.11;100545.03;5091685;28;20289;-66
2022/01/18 01:01:25;;;;;;;7.10;2.63;;;;;;;1.78;65.57;100548.53;5091659;28;20044;-66
2022/01/18 01:04:01;;;;;;;7.10;3.17;;;;;;;1.79;65.70;100557.25;5091396;28;20044;-66
2022/01/18 01:06:34;;;;;;;5.30;2.63;;;;;;;1.80;65.67;100553.75;5091639;28;20040;-66
2022/01/18 01:09:08;;;;;;;6.38;2.60;;;;;;;1.81;65.76;100558.13;5090534;28;20044;-66
2022/01/18 01:11:41;;;;;;;7.90;2.85;;;;;;;1.81;65.96;100556.38;5090529;28;20090;-66
2022/01/18 01:14:19;;;;;;;5.95;2.70;;;;;;;1.52;65.87;100513.66;5091154;28;20045;-66
2022/01/18 01:16:59;;;;;;;6.25;2.70;;;;;;;1.75;66.21;100564.22;5091477;28;20086;-66
2022/01/18 01:37:11;;;;;;;6.20;3.17;;;;;;;1.32;67.49;100510.19;5072476;28;20058;-66
2022/01/18 01:42:58;;;;;;;5.53;3.03;;;;;;;1.70;67.91;100562.47;5087718;28;20036;-66
2022/01/18 01:45:34;;;;;;;5.50;2.25;;;;;;;1.67;68.15;100567.72;5087085;28;20079;-65
2022/01/18 01:48:06;;;;;;;6.53;2.33;;;;;;;-0.04;68.21;100278.66;5087860;28;20090;-65
2022/01/18 01:50:45;;;;;;;4.50;2.53;;;;;;;1.65;68.03;100566.84;5069872;28;20071;-66
2022/01/18 01:53:20;;;;;;;8.63;3.03;;;;;;;1.67;68.19;100560.72;5087541;28;20110;-65
2022/01/18 01:55:53;;;;;;;4.93;3.38;;;;;;;0.31;68.14;100327.38;5086590;28;20044;-66
2022/01/18 01:58:28;;;;;;;7.63;3.80;;;;;;;1.63;68.16;100574.66;5087280;28;20043;-66
2022/01/18 02:01:05;;;;;;;5.28;3.00;;;;;;;1.66;68.55;100599.94;5087304;28;20103;-66
2022/01/18 02:03:38;;;;;;;8.20;3.30;;;;;;;1.66;68.66;100569.44;5087622;28;20051;-66
2022/01/18 02:06:10;;;;;;;6.88;2.90;;;;;;;1.66;68.24;100577.28;5087555;28;20085;-66
2022/01/18 02:08:43;;;;;;;8.38;2.97;;;;;;;1.66;68.37;100568.56;5087142;28;20086;-65
2022/01/18 02:11:15;;;;;;;11.48;5.35;;;;;;;1.66;68.70;100573.81;5087390;28;20044;-66
2022/01/18 02:13:50;;;;;;;5.40;3.33;;;;;;;1.67;68.29;100567.72;5087010;28;20044;-66
2022/01/18 02:22:00;;;;;;;6.53;2.50;;;;;;;1.56;68.46;100544.16;5086853;28;20090;-66
2022/01/18 02:24:32;;;;;;;7.32;3.03;;;;;;;1.57;68.10;100544.16;5086836;28;20090;-66
2022/01/18 02:27:04;;;;;;;6.20;3.03;;;;;;;1.58;67.85;100558.09;5087118;28;20036;-65
2022/01/18 02:29:37;;;;;;;6.65;3.25;;;;;;;1.56;68.01;100547.63;5086806;28;20137;-65
2022/01/18 02:32:10;;;;;;;4.50;2.42;;;;;;;1.54;68.30;100543.28;5086594;28;20040;-65
2022/01/18 02:34:42;;;;;;;5.13;2.70;;;;;;;1.56;68.00;100549.38;5086572;28;20040;-65
2022/01/18 02:37:16;;;;;;;6.07;2.30;;;;;;;1.53;67.93;100550.25;5086897;28;20040;-65
2022/01/18 02:39:48;;;;;;;7.07;2.60;;;;;;;1.50;67.93;100552.84;5086827;28;20086;-65
2022/01/18 02:42:23;;;;;;;7.43;2.10;;;;;;;1.46;68.13;100553.72;5086507;28;20044;-65
2022/01/18 02:44:55;;;;;;;8.05;2.97;;;;;;;1.45;68.12;100572.00;5086441;28;20119;-66
2022/01/18 02:47:27;;;;;;;7.30;2.95;;;;;;;1.47;68.11;100563.31;5086391;28;20041;-65
2022/01/18 02:49:57;;;;;;;7.00;2.88;;;;;;;1.50;67.89;100572.88;5086370;28;20081;-65
2022/01/18 02:52:29;;;;;;;6.70;3.35;;;;;;;1.47;67.85;100572.88;5086607;28;20138;-65
2022/01/18 02:54:58;;;;;;;8.00;3.08;;;;;;;1.39;67.92;100557.19;5086073;28;20120;-66
2022/01/18 02:57:28;;;;;;;5.20;2.65;;;;;;;1.48;67.92;100582.47;5086156;28;20075;-66
2022/01/18 03:00:14;;;;;;;6.78;3.05;;;;;;;1.46;67.77;100578.97;5086405;28;20041;-65
2022/01/18 03:05:36;;;;;;;6.32;3.13;;;;;;;1.36;68.21;100582.44;5086030;28;20379;-65
2022/01/18 03:08:11;;;;;;;6.35;2.50;;;;;;;1.39;68.21;100587.69;5085946;28;20178;-65
2022/01/18 03:10:43;;;;;;;7.53;3.20;;;;;;;1.35;68.11;100581.56;5086232;28;20090;-65
2022/01/18 03:13:15;;;;;;;4.05;2.30;;;;;;;1.37;68.10;100587.69;5086134;28;20086;-65
2022/01/18 03:15:47;;;;;;;4.82;3.00;;;;;;;1.39;67.93;100588.53;5086018;28;20094;-66
2022/01/18 03:18:20;;;;;;;8.90;3.22;;;;;;;1.36;67.64;100596.38;5085789;28;20044;-66
2022/01/18 03:20:52;;;;;;;8.70;3.05;;;;;;;1.35;67.55;100596.38;5085765;28;20040;-66
2022/01/18 03:23:25;;;;;;;8.07;2.95;;;;;;;1.38;67.40;100602.47;5085926;28;20063;-65
2022/01/18 03:26:00;;;;;;;5.70;2.30;;;;;;;1.36;67.11;100598.13;5085978;28;20036;-65
2022/01/18 03:28:31;;;;;;;8.68;2.60;;;;;;;1.36;66.84;100605.97;5085657;28;20212;-66
2022/01/18 03:31:04;;;;;;;6.25;2.88;;;;;;;1.35;66.88;100609.44;5085609;28;20040;-65
2022/01/18 03:33:36;;;;;;;7.32;3.10;;;;;;;1.35;66.33;100619.88;5085503;28;20090;-66
2022/01/18 03:36:08;;;;;;;6.85;2.47;;;;;;;1.35;65.97;100625.09;5085832;28;20094;-66
2022/01/18 03:38:42;;;;;;;4.68;2.88;;;;;;;1.33;65.92;100629.47;5085801;28;20044;-66
2022/01/18 03:41:14;;;;;;;8.75;3.20;;;;;;;1.33;65.75;100637.28;5085790;28;20086;-66
2022/01/18 03:43:47;;;;;;;10.10;3.05;;;;;;;1.30;65.59;100632.94;5084884;28;20186;-65
2022/01/18 03:46:19;;;;;;;8.25;2.72;;;;;;;1.29;65.32;100639.03;5085372;28;20040;-65
2022/01/18 03:48:52;;;;;;;7.43;2.67;;;;;;;1.29;64.98;100636.41;5085665;28;20065;-66
2022/01/18 03:51:24;;;;;;;6.13;2.40;;;;;;;1.29;64.90;100649.47;5085649;28;20344;-66
2022/01/18 03:53:58;;;;;;;8.10;2.85;;;;;;;1.25;64.85;100648.59;5085258;28;20056;-66
2022/01/18 03:56:30;;;;;;;5.05;2.28;;;;;;;1.25;64.94;100656.44;5085552;28;20049;-66
2022/01/18 03:59:02;;;;;;;5.20;2.85;;;;;;;1.24;64.77;100651.19;5085457;28;20040;-65
2022/01/18 04:01:34;;;;;;;8.05;2.60;;;;;;;1.24;64.59;100656.41;5085193;28;20086;-65
2022/01/18 04:04:06;;;;;;;4.50;1.60;;;;;;;1.23;64.34;100650.31;5085235;28;20093;-66
2022/01/18 04:06:38;;;;;;;3.92;1.90;;;;;;;1.22;64.23;100658.16;5085508;28;20044;-65
2022/01/18 04:09:12;;;;;;;5.78;2.72;;;;;;;1.22;64.07;100647.72;5085182;28;20086;-66
2022/01/18 04:11:44;;;;;;;4.55;2.40;;;;;;;1.19;64.45;100660.75;5085483;28;20292;-65
2022/01/18 04:14:16;;;;;;;5.53;2.05;;;;;;;1.17;64.38;100650.31;5085274;28;20041;-65
2022/01/18 04:17:01;;;;;;;4.38;2.38;;;;;;;1.18;64.04;100656.41;5084623;28;20235;-66
2022/01/18 04:28:13;;;;;;;6.55;2.55;;;;;;;1.12;63.99;100687.72;5084237;28;20237;-66
2022/01/18 04:30:45;;;;;;;7.75;2.47;;;;;;;1.10;64.10;100697.28;5084930;28;20143;-66
2022/01/18 04:33:17;;;;;;;7.30;2.55;;;;;;;1.13;64.04;100686.84;5085217;28;20048;-65
2022/01/18 04:35:50;;;;;;;7.40;2.65;;;;;;;1.14;64.09;100696.44;5084810;28;20347;-66
2022/01/18 04:38:22;;;;;;;6.78;2.80;;;;;;;1.12;64.22;100698.16;5085198;28;20174;-66
2022/01/18 04:41:00;;;;;;;6.03;3.00;;;;;;;1.09;64.09;100706.84;5085141;28;20044;-66
2022/01/18 04:43:46;;;;;;;5.07;2.33;;;;;;;1.09;64.08;100708.59;5084884;28;20040;-66
2022/01/18 04:49:10;;;;;;;7.72;2.90;;;;;;;0.48;64.24;100661.28;5084808;28;20086;-66
2022/01/18 04:51:44;;;;;;;8.00;2.67;;;;;;;0.44;64.40;100630.81;5085031;28;20041;-66
2022/01/18 04:54:17;;;;;;;9.30;3.17;;;;;;;1.06;64.33;100724.25;5084374;28;20056;-66
2022/01/18 04:59:40;;;;;;;10.07;4.20;;;;;;;1.04;64.56;100728.56;5088699;28;20082;-65
2022/01/18 05:02:12;;;;;;;7.93;2.83;;;;;;;1.10;64.64;100736.44;5088688;28;20045;-66
2022/01/18 05:04:44;;;;;;;10.27;3.95;;;;;;;1.10;64.76;100741.66;5088625;28;20157;-66
2022/01/18 05:07:18;;;;;;;7.28;2.88;;;;;;;1.11;64.68;100746.03;5088311;28;20223;-66
2022/01/18 05:09:52;;;;;;;7.90;3.85;;;;;;;1.09;64.66;100752.97;5088597;28;20240;-66
2022/01/18 05:12:38;;;;;;;6.72;2.70;;;;;;;1.08;64.66;100746.00;5087764;28;20247;-66
2022/01/18 05:15:33;;;;;;;6.05;3.22;;;;;;;1.07;64.43;100746.88;5088100;28;20086;-66
2022/01/18 05:21:10;;;;;;;9.68;4.32;;;;;;;1.09;64.70;100752.97;5088240;28;20086;-66
2022/01/18 05:23:42;;;;;;;7.15;3.08;;;;;;;1.03;64.69;100752.94;5087998;28;20346;-67
2022/01/18 05:26:15;;;;;;;12.60;4.43;;;;;;;0.90;64.76;100715.44;5087428;28;20045;-67
2022/01/18 05:28:49;;;;;;;9.27;3.55;;;;;;;1.10;64.27;100757.34;5087939;28;20048;-67
2022/01/18 05:31:21;;;;;;;6.40;3.05;;;;;;;0.30;64.11;100615.09;5087903;28;20105;-67
2022/01/18 05:33:54;;;;;;;7.18;3.72;;;;;;;1.11;64.44;100748.63;5087327;28;20174;-67
2022/01/18 05:36:27;;;;;;;8.57;3.50;;;;;;;1.07;64.49;100749.47;5087737;28;20048;-67
2022/01/18 05:38:59;;;;;;;9.10;3.03;;;;;;;1.05;64.55;100743.38;5088014;28;20086;-67
2022/01/18 05:41:31;;;;;;;7.32;3.70;;;;;;;1.03;64.71;100752.94;5087990;28;20045;-67
2022/01/18 05:44:06;;;;;;;8.32;4.03;;;;;;;1.03;64.87;100761.66;5087936;28;20142;-66
2022/01/18 05:46:38;;;;;;;13.40;4.05;;;;;;;1.03;64.50;100753.81;5087536;28;20094;-67
2022/01/18 05:49:11;;;;;;;5.55;3.22;;;;;;;0.75;64.65;100717.97;5087749;28;20093;-66
2022/01/18 05:51:43;;;;;;;8.25;2.90;;;;;;;1.08;64.93;100759.06;5087802;28;20042;-67
2022/01/18 05:54:15;;;;;;;10.90;4.35;;;;;;;1.03;64.92;100768.59;5087111;28;20064;-67
2022/01/18 05:56:49;;;;;;;8.23;2.92;;;;;;;0.80;64.94;100732.78;5087273;28;20115;-67
2022/01/18 05:59:24;;;;;;;7.72;2.80;;;;;;;1.03;64.71;100766.00;5087680;28;20045;-66
2022/01/18 06:02:02;;;;;;;;;;;;;;;1.01;64.66;100768.59;5088025;28;20048;-66
2022/01/18 06:07:24;;;;;;;5.85;3.25;;;;;;;1.05;65.10;100761.66;5086782;28;20358;-67
2022/01/18 06:09:56;;;;;;;7.82;3.60;;;;;;;0.75;65.09;100721.47;5086419;28;20233;-67
2022/01/18 06:12:25;;;;;;;9.15;3.53;;;;;;;1.04;65.04;100776.44;5087435;28;20040;-67
2022/01/18 06:14:56;;;;;;;8.02;4.18;;;;;;;0.46;65.02;100673.44;5087219;28;20047;-67
2022/01/18 06:17:24;;;;;;;6.40;2.88;;;;;;;1.02;65.08;100779.91;5087428;28;20090;-65
2022/01/18 06:19:55;;;;;;;5.85;3.13;;;;;;;1.02;65.25;100780.78;5086678;28;20054;-65
2022/01/18 06:22:25;;;;;;;5.15;2.80;;;;;;;0.99;65.34;100790.34;5086990;28;20028;-66
2022/01/18 06:24:55;;;;;;;10.00;3.92;;;;;;;1.00;65.47;100798.19;5086964;28;20036;-65
2022/01/18 06:27:25;;;;;;;5.05;3.67;;;;;;;0.97;65.39;100792.94;5087063;28;20029;-65
2022/01/18 06:29:56;;;;;;;8.63;4.70;;;;;;;0.95;65.62;100794.66;5086527;28;20040;-65
2022/01/18 06:32:25;;;;;;;5.43;3.17;;;;;;;1.01;65.58;100799.94;5086791;28;20090;-65
2022/01/18 06:34:55;;;;;;;4.88;2.70;;;;;;;1.00;65.77;100799.91;5086346;28;20085;-65
2022/01/18 06:37:25;;;;;;;8.75;3.58;;;;;;;1.02;65.67;100812.13;5086420;28;20064;-66
2022/01/18 06:39:57;;;;;;;5.65;2.60;;;;;;;1.02;65.65;100806.91;5086418;28;20204;-66
2022/01/18 06:42:26;;;;;;;6.47;3.53;;;;;;;0.73;65.97;100762.31;5086680;28;20392;-66
2022/01/18 06:44:57;;;;;;;6.97;3.60;;;;;;;0.98;66.18;100820.78;5086349;28;20208;-66
2022/01/18 06:47:26;;;;;;;5.32;3.10;;;;;;;0.97;66.07;100813.81;5086428;28;20155;-66
2022/01/18 06:49:56;;;;;;;8.70;4.03;;;;;;;0.98;66.41;100827.75;5086573;28;20312;-67
2022/01/18 06:52:26;;;;;;;10.10;3.63;;;;;;;0.97;66.40;100828.63;5086541;28;20109;-66
2022/01/18 06:54:56;;;;;;;9.65;3.40;;;;;;;0.98;66.66;100835.59;5086073;28;20045;-66
2022/01/18 06:57:26;;;;;;;7.30;3.33;;;;;;;1.02;66.39;100839.97;5086147;28;20051;-66
2022/01/18 06:59:58;;;;;;;6.32;4.22;;;;;;;1.00;66.45;100844.31;5085594;28;20199;-66
2022/01/18 07:02:27;;;;;;;8.65;4.20;;;;;;;1.05;66.48;100842.59;5086053;28;20040;-66
2022/01/18 07:04:56;;;;;;;7.72;4.55;;;;;;;1.06;66.47;100844.34;5085882;28;20041;-66
2022/01/18 07:07:27;;;;;;;9.30;4.20;;;;;;;1.04;66.60;100844.34;5086152;28;20045;-66
2022/01/18 07:09:57;;;;;;;5.00;3.63;;;;;;;0.83;66.66;100802.41;5085934;28;20037;-66
2022/01/18 07:12:30;;;;;;;7.43;3.70;;;;;;;1.10;66.72;100848.72;5086415;28;20064;-66
2022/01/18 07:15:06;;;;;;;7.70;3.58;;;;;;;1.13;66.65;100851.34;5085530;28;20250;-66
2022/01/18 07:17:40;;;;;;;9.30;4.03;;;;;;;1.16;66.69;100852.25;5085147;28;20044;-66
2022/01/18 07:20:12;;;;;;;6.75;4.30;;;;;;;1.17;66.47;100843.56;5085379;28;20044;-67
2022/01/18 07:22:45;;;;;;;10.60;4.22;;;;;;;1.21;66.46;100841.84;5085781;28;20056;-67
2022/01/18 07:25:18;;;;;;;9.13;3.90;;;;;;;0.92;66.68;100797.25;5085485;28;20036;-66
2022/01/18 07:27:50;;;;;;;5.97;3.08;;;;;;;1.26;66.64;100861.03;5085053;28;20044;-66
2022/01/18 07:30:24;;;;;;;9.15;4.40;;;;;;;1.22;66.80;100872.31;5085848;28;20041;-66
2022/01/18 07:32:56;;;;;;;9.90;4.15;;;;;;;1.28;66.77;100861.03;5085542;28;20082;-66
2022/01/18 07:35:28;;;;;;;6.75;3.97;;;;;;;1.29;66.76;100855.81;5085545;28;20044;-66
2022/01/18 07:38:01;;;;;;;7.78;3.38;;;;;;;1.30;66.65;100852.34;5085431;28;20044;-66
2022/01/18 07:40:35;;;;;;;10.18;3.25;;;;;;;1.34;66.49;100848.88;5084831;28;20393;-66
2022/01/18 07:43:07;;;;;;;8.60;3.28;;;;;;;1.39;66.34;100846.28;5085452;28;20083;-66
2022/01/18 07:45:42;;;;;;;10.55;3.97;;;;;;;1.41;66.42;100852.41;5085543;28;20279;-66
2022/01/18 07:48:15;;;;;;;10.07;4.95;;;;;;;1.43;65.87;100843.72;5085375;28;20238;-66
2022/01/18 07:50:47;;;;;;;11.30;4.93;;;;;;;1.47;66.13;100836.75;5085206;28;20086;-67
2022/01/18 07:53:19;;;;;;;7.80;3.67;;;;;;;1.58;65.76;100845.53;5085099;28;20078;-66
2022/01/18 07:55:52;;;;;;;11.20;3.60;;;;;;;1.65;65.95;100851.69;5085329;28;20044;-66
2022/01/18 07:58:24;;;;;;;5.25;3.17;;;;;;;1.79;65.75;100856.13;5085358;28;20090;-67
2022/01/18 08:01:00;;;;;;;9.55;4.47;;;;;;;1.94;65.29;100863.16;5085266;28;20040;-66
2022/01/18 08:03:33;;;;;;;10.07;4.25;;;;;;;2.17;64.99;100855.38;5085359;28;20041;-66
2022/01/18 08:06:05;;;;;;;7.57;4.18;;;;;;;2.32;64.54;100852.78;5085436;28;20048;-66
2022/01/18 08:08:39;;;;;;;10.02;4.45;;;;;;;2.48;64.22;100845.84;5085123;28;20040;-67
2022/01/18 08:11:11;;;;;;;9.50;4.13;;;;;;;2.67;63.71;100858.09;5085159;28;20040;-67
2022/01/18 08:13:48;;;;;;;8.85;4.38;;;;;;;2.84;63.45;100858.09;5085253;28;20083;-67
2022/01/18 08:19:07;;;;;;;10.85;4.55;;;;;;;3.12;62.75;100853.72;5084807;28;20048;-67
2022/01/18 08:21:40;;;;;;;8.07;4.13;;;;;;;3.32;62.45;100864.16;5085252;28;20044;-67
2022/01/18 08:24:12;;;;;;;9.65;4.22;;;;;;;3.47;61.81;100854.50;5084823;28;20045;-66
2022/01/18 08:26:44;;;;;;;8.10;4.45;;;;;;;3.53;61.85;100864.13;5085071;28;20044;-67
2022/01/18 08:29:16;;;;;;;9.93;5.30;;;;;;;3.67;61.26;100864.94;5084804;28;20059;-67
2022/01/18 08:31:50;;;;;;;10.50;4.22;;;;;;;3.84;60.94;100857.03;5088969;28;20040;-66
2022/01/18 08:34:22;;;;;;;8.43;4.78;;;;;;;3.98;61.06;100855.22;5089113;28;20044;-66
2022/01/18 08:36:55;;;;;;;8.88;4.50;;;;;;;4.11;60.62;100856.03;5088795;28;20094;-66
2022/01/18 08:39:27;;;;;;;9.35;3.72;;;;;;;4.19;60.17;100859.47;5088984;28;20041;-66
2022/01/18 08:41:59;;;;;;;9.45;4.47;;;;;;;4.29;59.78;100860.34;5088912;28;20056;-67
2022/01/18 08:44:32;;;;;;;8.85;4.25;;;;;;;4.40;59.98;100869.03;5088890;28;20082;-67
2022/01/18 08:47:06;;;;;;;13.88;4.70;;;;;;;4.19;59.36;100833.25;5088585;28;20044;-67
2022/01/18 08:49:39;;;;;;;7.85;3.25;;;;;;;4.58;59.65;100868.91;5087929;28;20086;-67
2022/01/18 08:52:12;;;;;;;7.75;3.92;;;;;;;4.75;59.39;100869.66;5088033;28;20082;-67
2022/01/18 08:54:44;;;;;;;8.02;3.95;;;;;;;4.91;58.85;100867.81;5088275;28;20048;-66
2022/01/18 08:57:16;;;;;;;14.80;4.55;;;;;;;5.02;58.78;100870.34;5088292;28;20243;-66
2022/01/18 08:59:50;;;;;;;9.45;3.83;;;;;;;4.80;58.10;100817.97;5088075;28;20293;-65
2022/01/18 09:02:23;;;;;;;6.68;3.65;;;;;;;5.20;57.26;100874.56;5087616;28;20044;-66
2022/01/18 09:04:55;;;;;;;10.43;3.40;;;;;;;5.36;57.60;100879.66;5088551;28;20036;-66
2022/01/18 09:07:28;;;;;;;10.10;4.68;;;;;;;5.31;56.93;100835.91;5087291;28;20042;-66
2022/01/18 09:10:05;;;;;;;11.77;4.28;;;;;;;5.60;56.62;100877.69;5087975;28;20040;-66
2022/01/18 09:12:33;;;;;;;9.32;3.40;;;;;;;5.72;56.05;100888.94;5087875;28;20124;-67
2022/01/18 09:15:06;;;;;;;8.05;3.90;;;;;;;5.80;55.31;100882.72;5088573;28;20036;-67
2022/01/18 09:17:35;;;;;;;8.27;3.78;;;;;;;5.90;55.50;100893.13;5088044;28;20075;-67
2022/01/18 09:20:06;;;;;;;6.60;3.55;;;;;;;6.09;55.63;100893.75;5088188;28;20086;-67
2022/01/18 09:22:35;;;;;;;8.48;3.45;;;;;;;6.26;55.26;100896.19;5087718;28;20044;-67
2022/01/18 09:25:04;;;;;;;7.93;3.63;;;;;;;6.36;54.42;100900.44;5087637;28;20123;-67
2022/01/18 09:27:34;;;;;;;7.90;3.72;;;;;;;6.32;54.69;100893.47;5087626;28;20040;-67
2022/01/18 09:30:05;;;;;;;5.50;2.85;;;;;;;6.34;54.16;100892.56;5087042;28;20044;-66
2022/01/18 09:32:35;;;;;;;8.07;4.15;;;;;;;6.50;53.36;100905.53;5087998;28;20042;-67
2022/01/18 09:35:06;;;;;;;9.85;3.78;;;;;;;6.56;53.82;100901.03;5088182;28;20047;-67
2022/01/18 09:37:35;;;;;;;8.77;3.05;;;;;;;6.63;54.31;100905.31;5087090;28;20048;-67
2022/01/18 09:40:06;;;;;;;9.40;4.90;;;;;;;6.46;52.59;100864.31;5087842;28;20039;-67
2022/01/18 09:42:37;;;;;;;11.60;3.22;;;;;;;6.36;52.01;100882.00;5086937;28;20059;-66
2022/01/18 09:45:08;;;;;;;8.48;2.92;;;;;;;6.82;53.55;100902.44;5087539;28;20036;-67
2022/01/18 09:47:44;;;;;;;6.65;3.50;;;;;;;6.68;51.18;100860.47;5087254;28;20067;-66
2022/01/18 09:50:21;;;;;;;7.30;3.28;;;;;;;7.11;51.34;100902.84;5087332;28;20320;-66
2022/01/18 09:52:54;;;;;;;8.48;2.85;;;;;;;7.25;52.02;100911.41;5087381;28;20040;-67
2022/01/18 09:55:30;;;;;;;9.57;4.05;;;;;;;7.41;50.42;100909.41;5086965;28;20255;-67
2022/01/18 09:58:06;;;;;;;6.78;3.03;;;;;;;7.38;51.78;100881.31;5087143;28;20040;-67
2022/01/18 10:00:41;;;;;;;12.00;4.60;;;;;;;7.68;49.89;100931.78;5087371;28;20040;-67
2022/01/18 10:03:26;;;;;;;;;;;;;;;7.61;48.02;100906.41;5087380;28;20086;-67
2022/01/18 10:05:59;;;;;;;11.23;3.72;;;;;;;7.82;51.01;100899.84;5086994;28;19920;-67
2022/01/18 10:08:31;;;;;;;8.57;4.30;;;;;;;7.94;49.85;101066.81;5087132;28;20044;-67
2022/01/18 10:11:10;;;;;;;10.65;4.20;;;;;;;7.74;47.59;100851.63;5086819;28;20278;-67
2022/01/18 10:13:45;;;;;;;8.70;3.17;;;;;;;7.10;49.26;100755.25;5086979;28;20092;-66
2022/01/18 10:16:19;;;;;;;8.95;3.38;;;;;;;7.44;48.98;100782.72;5086747;28;20040;-66
2022/01/18 10:18:57;;;;;;;10.27;3.60;;;;;;;8.35;49.15;100889.06;5086841;28;20048;-67
2022/01/18 10:21:33;;;;;;;13.63;4.43;;;;;;;8.34;49.33;100850.34;5086653;28;20440;-67
2022/01/18 10:24:15;;;;;;;9.68;4.35;;;;;;;8.60;45.94;100883.22;5086475;28;20086;-68
2022/01/18 10:26:50;;;;;;;12.05;3.70;;;;;;;8.54;47.45;100891.28;5086323;28;20040;-67
2022/01/18 10:29:31;;;;;;;9.30;3.53;;;;;;;8.63;46.18;100880.50;5086329;28;20344;-66
2022/01/18 10:32:12;;;;;;;7.30;3.70;;;;;;;8.81;46.95;100887.16;5086220;28;20090;-66
2022/01/18 10:35:08;;;;;;;12.70;4.03;;;;;;;8.67;45.42;100880.41;5086279;28;20138;-66
2022/01/18 10:37:41;;;;;;;8.43;4.30;;;;;;;8.60;45.74;100872.66;5086136;28;20045;-67
2022/01/18 10:40:17;;;;;;;7.35;3.22;;;;;;;8.88;46.31;100867.59;5086059;28;20208;-67
2022/01/18 10:42:53;;;;;;;8.70;3.33;;;;;;;8.87;45.97;100857.91;5086413;28;20086;-67
2022/01/18 10:45:30;;;;;;;9.05;3.20;;;;;;;8.21;45.88;100790.75;5086068;28;20044;-67
2022/01/18 10:48:10;;;;;;;7.47;3.83;;;;;;;8.80;47.18;100853.69;5085915;28;20044;-67
2022/01/18 10:50:46;;;;;;;9.38;3.17;;;;;;;8.82;44.01;100867.72;5085858;28;20347;-67
2022/01/18 10:53:20;;;;;;;7.20;3.20;;;;;;;8.96;45.30;100860.34;5086025;28;20048;-67
2022/01/18 10:56:13;;;;;;;7.75;3.38;;;;;;;8.70;42.36;100860.09;5085747;28;20141;-67
2022/01/18 10:58:47;;;;;;;8.88;3.70;;;;;;;8.45;44.92;100858.03;5085540;28;20135;-67
2022/01/18 11:01:21;;;;;;;11.63;3.42;;;;;;;8.45;46.04;100865.94;5085427;28;20127;-66
2022/01/18 11:04:06;;;;;;;8.15;3.30;;;;;;;8.49;43.32;100872.03;5084485;28;20044;-66
2022/01/18 11:06:42;;;;;;;6.75;3.15;;;;;;;8.18;45.45;100870.06;5085422;28;20293;-67
2022/01/18 11:09:15;;;;;;;10.30;3.67;;;;;;;8.05;47.33;100871.22;5085279;28;20094;-67
2022/01/18 11:11:48;;;;;;;10.95;4.70;;;;;;;7.60;46.45;100836.06;5084779;28;20044;-67
2022/01/18 11:14:22;;;;;;;6.80;3.33;;;;;;;7.67;46.30;100907.16;5084671;28;20052;-68
2022/01/18 11:16:57;;;;;;;9.30;3.47;;;;;;;7.54;48.63;100894.22;5084547;28;20101;-67
2022/01/18 11:19:35;;;;;;;7.32;3.58;;;;;;;7.32;48.48;100884.03;5085817;28;20044;-67
2022/01/18 11:22:11;;;;;;;10.38;4.22;;;;;;;7.06;47.80;100887.13;5085549;28;20048;-67
2022/01/18 11:24:47;;;;;;;6.82;3.38;;;;;;;6.47;47.44;100829.19;5085000;28;20243;-67
2022/01/18 11:27:19;;;;;;;8.68;3.20;;;;;;;6.93;49.20;100905.78;5085397;28;20070;-67
2022/01/18 11:29:51;;;;;;;6.70;3.00;;;;;;;7.07;48.27;100904.66;5085340;28;20048;-67
2022/01/18 11:32:26;;;;;;;14.93;4.43;;;;;;;7.34;46.71;100898.09;5085197;28;20044;-67
2022/01/18 11:35:11;;;;;;;5.32;3.45;;;;;;;7.47;45.25;100909.31;5085063;28;20247;-67
2022/01/18 11:37:51;;;;;;;7.53;3.70;;;;;;;7.52;45.24;100904.81;5085106;28;20082;-67
2022/01/18 11:40:23;;;;;;;6.47;2.63;;;;;;;7.65;46.77;100901.03;5084975;28;20098;-67
2022/01/18 11:42:58;;;;;;;8.45;3.28;;;;;;;7.75;46.62;100904.38;5085179;28;20043;-68
2022/01/18 11:45:37;;;;;;;5.70;3.70;;;;;;;7.80;45.99;100906.94;5084164;28;20212;-67
2022/01/18 11:48:16;;;;;;;7.55;3.67;;;;;;;7.73;44.54;100894.75;5085041;28;20312;-67
2022/01/18 11:51:00;;;;;;;5.75;2.75;;;;;;;7.66;45.49;100889.59;5084356;28;20044;-67
2022/01/18 11:53:44;;;;;;;9.30;3.13;;;;;;;7.66;44.91;100904.56;5085145;28;20277;-68
2022/01/18 11:56:33;;;;;;;6.82;3.75;;;;;;;6.74;44.41;100747.06;5084804;28;20062;-67
2022/01/18 11:59:14;;;;;;;6.90;3.33;;;;;;;7.58;44.70;100906.47;5084967;28;20090;-67
2022/01/18 12:01:48;;;;;;;8.70;3.47;;;;;;;7.38;47.43;100889.22;5084203;28;20289;-68
2022/01/18 12:05:05;;;;;;;8.68;3.08;;;;;;;7.48;44.42;100903.13;5084779;28;20086;-67
2022/01/18 12:08:03;;;;;;;8.43;3.80;;;;;;;7.15;44.68;100867.63;5084829;28;20045;-67
2022/01/18 12:10:47;;;;;;;8.77;3.05;;;;;;;7.48;45.67;100904.91;5051670;28;20076;-67
2022/01/18 12:13:29;;;;;;;7.35;3.15;;;;;;;7.55;45.77;100906.53;5084867;28;20122;-67
2022/01/18 12:16:04;;;;;;;8.27;3.45;;;;;;;7.55;46.42;100898.59;5083644;28;20255;-68
2022/01/18 12:18:50;;;;;;;12.30;3.95;;;;;;;7.65;45.08;100906.31;5084324;28;20044;-68
2022/01/18 12:21:26;;;;;;;8.40;3.97;;;;;;;7.70;46.92;100911.53;5084954;28;20036;-68
2022/01/18 12:24:13;;;;;;;7.38;4.05;;;;;;;7.62;47.35;100919.56;5084626;28;20083;-68
2022/01/18 12:26:58;;;;;;;7.78;3.25;;;;;;;7.45;46.67;100912.84;5084725;28;20186;-68
2022/01/18 12:32:41;;;;;;;12.05;4.32;;;;;;;7.62;46.12;100916.94;5083976;28;20248;-68
2022/01/18 12:35:22;;;;;;;8.95;4.43;;;;;;;7.85;45.80;100907.72;5084690;28;20048;-67
2022/01/18 12:37:54;;;;;;;8.45;3.63;;;;;;;7.94;46.36;100910.19;5084682;28;20040;-67
2022/01/18 12:40:32;;;;;;;10.32;3.75;;;;;;;7.97;46.00;100918.91;5083764;28;20048;-67
2022/01/18 12:46:16;;;;;;;6.35;2.83;;;;;;;7.86;44.58;100862.81;5084706;28;20292;-67
2022/01/18 12:48:52;;;;;;;12.05;4.43;;;;;;;8.02;45.69;100903.84;5084400;28;20098;-67
2022/01/18 12:51:24;;;;;;;11.48;6.07;;;;;;;7.97;46.49;100907.47;5084427;28;20062;-67
2022/01/18 12:53:56;;;;;;;9.20;4.78;;;;;;;7.98;45.59;100910.09;5084249;28;20106;-68
2022/01/18 12:56:29;;;;;;;6.65;3.40;;;;;;;7.90;45.75;100919.94;5084390;28;20040;-68
2022/01/18 12:59:05;;;;;;;8.55;3.38;;;;;;;7.88;44.98;100913.81;5084326;28;20067;-68
2022/01/18 13:01:37;;;;;;;7.20;4.35;;;;;;;7.91;45.56;100924.31;5084537;28;20040;-67
2022/01/18 13:04:10;;;;;;;6.70;3.20;;;;;;;7.78;45.82;100917.53;5084538;28;20048;-68